sensor_id;sensor_type;location;lat;lon;timestamp;temperature;humidity
19403;DHT22;9837;48.888;8.998;2023-06-22T00:01:53;24.30;69.30
19403;DHT22;9837;48.888;8.998;2023-06-22T00:04:18;24.50;69.10
19403;DHT22;9837;48.888;8.998;2023-06-22T00:06:44;24.50;68.90
19403;DHT22;9837;48.888;8.998;2023-06-22T00:09:10;24.50;68.70
19403;DHT22;9837;48.888;8.998;2023-06-22T00:11:36;24.40;68.70
19403;DHT22;9837;48.888;8.998;2023-06-22T00:14:03;24.50;68.80
19403;DHT22;9837;48.888;8.998;2023-06-22T00:16:28;24.50;68.60
19403;DHT22;9837;48.888;8.998;2023-06-22T00:18:54;24.40;68.70
19403;DHT22;9837;48.888;8.998;2023-06-22T00:23:46;24.20;70.10
19403;DHT22;9837;48.888;8.998;2023-06-22T00:31:04;24.60;68.20
19403;DHT22;9837;48.888;8.998;2023-06-22T00:35:57;24.80;67.70
19403;DHT22;9837;48.888;8.998;2023-06-22T00:38:22;24.70;67.60
19403;DHT22;9837;48.888;8.998;2023-06-22T00:40:48;24.50;68.40
19403;DHT22;9837;48.888;8.998;2023-06-22T00:45:39;25.30;66.30
19403;DHT22;9837;48.888;8.998;2023-06-22T00:48:05;25.50;65.00
19403;DHT22;9837;48.888;8.998;2023-06-22T00:50:32;25.50;64.80
19403;DHT22;9837;48.888;8.998;2023-06-22T00:53:08;25.70;64.20
19403;DHT22;9837;48.888;8.998;2023-06-22T00:55:38;25.90;63.40
19403;DHT22;9837;48.888;8.998;2023-06-22T00:58:08;25.90;63.10
19403;DHT22;9837;48.888;8.998;2023-06-22T01:00:36;25.90;63.30
19403;DHT22;9837;48.888;8.998;2023-06-22T01:03:02;25.90;63.40
19403;DHT22;9837;48.888;8.998;2023-06-22T01:05:28;25.90;63.50
19403;DHT22;9837;48.888;8.998;2023-06-22T01:08:05;25.80;63.80
19403;DHT22;9837;48.888;8.998;2023-06-22T01:13:45;25.60;64.20
19403;DHT22;9837;48.888;8.998;2023-06-22T01:16:15;25.50;64.50
19403;DHT22;9837;48.888;8.998;2023-06-22T01:18:43;25.60;64.70
19403;DHT22;9837;48.888;8.998;2023-06-22T01:21:11;25.60;64.40
19403;DHT22;9837;48.888;8.998;2023-06-22T01:23:51;25.70;63.80
19403;DHT22;9837;48.888;8.998;2023-06-22T01:26:25;25.70;63.90
19403;DHT22;9837;48.888;8.998;2023-06-22T01:28:55;25.60;63.90
19403;DHT22;9837;48.888;8.998;2023-06-22T01:31:24;25.60;64.10
19403;DHT22;9837;48.888;8.998;2023-06-22T01:33:53;25.40;64.60
19403;DHT22;9837;48.888;8.998;2023-06-22T01:36:21;25.30;65.10
19403;DHT22;9837;48.888;8.998;2023-06-22T01:38:48;25.10;65.70
19403;DHT22;9837;48.888;8.998;2023-06-22T01:41:15;24.90;66.90
19403;DHT22;9837;48.888;8.998;2023-06-22T01:43:42;24.70;67.70
19403;DHT22;9837;48.888;8.998;2023-06-22T01:46:09;24.90;67.30
19403;DHT22;9837;48.888;8.998;2023-06-22T01:48:35;25.10;66.40
19403;DHT22;9837;48.888;8.998;2023-06-22T01:51:01;25.30;65.60
19403;DHT22;9837;48.888;8.998;2023-06-22T01:53:27;25.40;64.90
19403;DHT22;9837;48.888;8.998;2023-06-22T01:55:52;25.40;64.90
19403;DHT22;9837;48.888;8.998;2023-06-22T01:58:20;25.10;65.70
19403;DHT22;9837;48.888;8.998;2023-06-22T02:00:53;25.00;66.20
19403;DHT22;9837;48.888;8.998;2023-06-22T02:03:24;24.90;67.00
19403;DHT22;9837;48.888;8.998;2023-06-22T02:05:58;24.80;67.40
19403;DHT22;9837;48.888;8.998;2023-06-22T02:08:29;25.00;66.80
19403;DHT22;9837;48.888;8.998;2023-06-22T02:10:56;25.20;65.80
19403;DHT22;9837;48.888;8.998;2023-06-22T02:13:24;25.30;65.20
19403;DHT22;9837;48.888;8.998;2023-06-22T02:15:50;25.20;65.60
19403;DHT22;9837;48.888;8.998;2023-06-22T02:20:42;25.20;65.20
19403;DHT22;9837;48.888;8.998;2023-06-22T02:23:08;25.10;65.30
19403;DHT22;9837;48.888;8.998;2023-06-22T02:25:35;24.90;66.10
19403;DHT22;9837;48.888;8.998;2023-06-22T02:28:01;24.90;66.10
19403;DHT22;9837;48.888;8.998;2023-06-22T02:30:26;24.90;65.90
19403;DHT22;9837;48.888;8.998;2023-06-22T02:32:52;24.50;66.90
19403;DHT22;9837;48.888;8.998;2023-06-22T02:35:25;24.20;68.70
19403;DHT22;9837;48.888;8.998;2023-06-22T02:37:51;24.30;68.70
19403;DHT22;9837;48.888;8.998;2023-06-22T02:40:17;24.40;68.20
19403;DHT22;9837;48.888;8.998;2023-06-22T02:42:42;24.50;67.70
19403;DHT22;9837;48.888;8.998;2023-06-22T02:45:08;24.40;67.90
19403;DHT22;9837;48.888;8.998;2023-06-22T02:47:34;24.10;69.10
19403;DHT22;9837;48.888;8.998;2023-06-22T02:50:00;23.80;70.80
19403;DHT22;9837;48.888;8.998;2023-06-22T02:52:26;23.60;71.60
19403;DHT22;9837;48.888;8.998;2023-06-22T02:54:52;23.80;71.10
19403;DHT22;9837;48.888;8.998;2023-06-22T02:59:43;23.90;69.90
19403;DHT22;9837;48.888;8.998;2023-06-22T03:02:09;23.70;70.80
19403;DHT22;9837;48.888;8.998;2023-06-22T03:04:35;23.90;71.00
19403;DHT22;9837;48.888;8.998;2023-06-22T03:07:01;24.20;69.80
19403;DHT22;9837;48.888;8.998;2023-06-22T03:09:27;24.40;68.70
19403;DHT22;9837;48.888;8.998;2023-06-22T03:11:54;24.50;67.80
19403;DHT22;9837;48.888;8.998;2023-06-22T03:16:46;24.40;68.20
19403;DHT22;9837;48.888;8.998;2023-06-22T03:19:11;24.50;67.90
19403;DHT22;9837;48.888;8.998;2023-06-22T03:21:37;24.50;67.60
19403;DHT22;9837;48.888;8.998;2023-06-22T03:24:07;24.50;67.50
19403;DHT22;9837;48.888;8.998;2023-06-22T03:26:33;24.40;68.10
19403;DHT22;9837;48.888;8.998;2023-06-22T03:28:58;24.20;68.90
19403;DHT22;9837;48.888;8.998;2023-06-22T03:31:24;24.20;69.00
19403;DHT22;9837;48.888;8.998;2023-06-22T03:33:50;24.10;69.60
19403;DHT22;9837;48.888;8.998;2023-06-22T03:36:16;23.90;70.50
19403;DHT22;9837;48.888;8.998;2023-06-22T03:38:46;23.70;71.10
19403;DHT22;9837;48.888;8.998;2023-06-22T03:41:12;23.60;71.70
19403;DHT22;9837;48.888;8.998;2023-06-22T03:43:38;23.60;71.60
19403;DHT22;9837;48.888;8.998;2023-06-22T03:46:03;23.70;71.50
19403;DHT22;9837;48.888;8.998;2023-06-22T03:48:29;23.80;71.30
19403;DHT22;9837;48.888;8.998;2023-06-22T03:50:54;23.70;71.50
19403;DHT22;9837;48.888;8.998;2023-06-22T03:53:20;23.60;71.60
19403;DHT22;9837;48.888;8.998;2023-06-22T03:55:50;23.60;71.90
19403;DHT22;9837;48.888;8.998;2023-06-22T04:00:41;23.30;73.20
19403;DHT22;9837;48.888;8.998;2023-06-22T04:03:07;23.30;73.80
19403;DHT22;9837;48.888;8.998;2023-06-22T04:05:32;23.40;72.90
19403;DHT22;9837;48.888;8.998;2023-06-22T04:07:58;23.50;72.90
19403;DHT22;9837;48.888;8.998;2023-06-22T04:10:24;23.60;72.00
19403;DHT22;9837;48.888;8.998;2023-06-22T04:12:49;23.80;71.30
19403;DHT22;9837;48.888;8.998;2023-06-22T04:15:15;23.90;71.10
19403;DHT22;9837;48.888;8.998;2023-06-22T04:17:40;23.90;70.80
19403;DHT22;9837;48.888;8.998;2023-06-22T04:20:06;23.90;71.00
19403;DHT22;9837;48.888;8.998;2023-06-22T04:22:32;23.90;71.20
19403;DHT22;9837;48.888;8.998;2023-06-22T04:24:58;23.80;71.30
19403;DHT22;9837;48.888;8.998;2023-06-22T04:27:23;23.70;71.80
19403;DHT22;9837;48.888;8.998;2023-06-22T04:29:49;23.80;71.70
19403;DHT22;9837;48.888;8.998;2023-06-22T04:32:18;23.60;72.30
19403;DHT22;9837;48.888;8.998;2023-06-22T04:34:43;23.70;72.30
19403;DHT22;9837;48.888;8.998;2023-06-22T04:37:09;23.70;72.20
19403;DHT22;9837;48.888;8.998;2023-06-22T04:39:41;23.70;72.10
19403;DHT22;9837;48.888;8.998;2023-06-22T04:42:07;23.50;72.80
19403;DHT22;9837;48.888;8.998;2023-06-22T04:44:32;23.80;72.80
19403;DHT22;9837;48.888;8.998;2023-06-22T04:46:59;24.30;71.00
19403;DHT22;9837;48.888;8.998;2023-06-22T04:49:34;25.20;67.60
19403;DHT22;9837;48.888;8.998;2023-06-22T04:52:05;26.20;63.80
19403;DHT22;9837;48.888;8.998;2023-06-22T04:54:31;26.40;61.90
19403;DHT22;9837;48.888;8.998;2023-06-22T04:57:00;26.90;60.90
19403;DHT22;9837;48.888;8.998;2023-06-22T04:59:30;27.50;59.30
19403;DHT22;9837;48.888;8.998;2023-06-22T05:01:57;27.70;58.70
19403;DHT22;9837;48.888;8.998;2023-06-22T05:04:24;28.10;57.80
19403;DHT22;9837;48.888;8.998;2023-06-22T05:06:53;28.30;57.30
19403;DHT22;9837;48.888;8.998;2023-06-22T05:09:20;28.80;56.50
19403;DHT22;9837;48.888;8.998;2023-06-22T05:11:46;29.40;55.40
19403;DHT22;9837;48.888;8.998;2023-06-22T05:14:13;30.10;53.90
19403;DHT22;9837;48.888;8.998;2023-06-22T05:16:40;30.30;52.80
19403;DHT22;9837;48.888;8.998;2023-06-22T05:19:06;30.50;52.70
19403;DHT22;9837;48.888;8.998;2023-06-22T05:21:32;30.30;52.60
19403;DHT22;9837;48.888;8.998;2023-06-22T05:23:57;30.10;52.80
19403;DHT22;9837;48.888;8.998;2023-06-22T05:26:26;30.10;53.10
19403;DHT22;9837;48.888;8.998;2023-06-22T05:28:52;30.10;52.90
19403;DHT22;9837;48.888;8.998;2023-06-22T05:31:19;30.70;52.30
19403;DHT22;9837;48.888;8.998;2023-06-22T05:33:48;30.90;51.30
19403;DHT22;9837;48.888;8.998;2023-06-22T05:36:15;31.00;51.00
19403;DHT22;9837;48.888;8.998;2023-06-22T05:38:41;30.90;51.20
19403;DHT22;9837;48.888;8.998;2023-06-22T05:41:07;30.70;51.60
19403;DHT22;9837;48.888;8.998;2023-06-22T05:43:33;30.40;52.40
19403;DHT22;9837;48.888;8.998;2023-06-22T05:46:00;30.00;53.00
19403;DHT22;9837;48.888;8.998;2023-06-22T05:48:26;29.80;53.20
19403;DHT22;9837;48.888;8.998;2023-06-22T05:50:52;29.40;54.00
19403;DHT22;9837;48.888;8.998;2023-06-22T05:53:18;29.50;54.10
19403;DHT22;9837;48.888;8.998;2023-06-22T05:55:43;29.90;53.20
19403;DHT22;9837;48.888;8.998;2023-06-22T05:58:09;29.70;53.40
19403;DHT22;9837;48.888;8.998;2023-06-22T06:00:35;29.90;53.40
19403;DHT22;9837;48.888;8.998;2023-06-22T06:03:00;30.30;52.50
19403;DHT22;9837;48.888;8.998;2023-06-22T06:05:30;30.60;51.40
19403;DHT22;9837;48.888;8.998;2023-06-22T06:07:56;30.30;51.60
19403;DHT22;9837;48.888;8.998;2023-06-22T06:10:22;29.90;52.30
19403;DHT22;9837;48.888;8.998;2023-06-22T06:12:47;30.30;52.40
19403;DHT22;9837;48.888;8.998;2023-06-22T06:15:13;30.60;51.50
19403;DHT22;9837;48.888;8.998;2023-06-22T06:17:46;31.00;50.90
19403;DHT22;9837;48.888;8.998;2023-06-22T06:20:12;31.20;49.90
19403;DHT22;9837;48.888;8.998;2023-06-22T06:22:37;30.90;50.30
19403;DHT22;9837;48.888;8.998;2023-06-22T06:25:03;30.60;51.00
19403;DHT22;9837;48.888;8.998;2023-06-22T06:27:29;30.20;51.70
19403;DHT22;9837;48.888;8.998;2023-06-22T06:29:55;30.10;52.10
19403;DHT22;9837;48.888;8.998;2023-06-22T06:32:21;29.90;52.10
19403;DHT22;9837;48.888;8.998;2023-06-22T06:34:46;30.30;51.90
19403;DHT22;9837;48.888;8.998;2023-06-22T06:37:12;30.70;50.40
19403;DHT22;9837;48.888;8.998;2023-06-22T06:39:37;30.60;50.70
19403;DHT22;9837;48.888;8.998;2023-06-22T06:42:04;31.00;50.50
19403;DHT22;9837;48.888;8.998;2023-06-22T06:44:29;31.00;50.30
19403;DHT22;9837;48.888;8.998;2023-06-22T06:46:55;31.10;50.40
19403;DHT22;9837;48.888;8.998;2023-06-22T06:49:20;31.00;49.40
19403;DHT22;9837;48.888;8.998;2023-06-22T06:51:46;31.30;49.70
19403;DHT22;9837;48.888;8.998;2023-06-22T06:54:11;31.60;49.10
19403;DHT22;9837;48.888;8.998;2023-06-22T06:56:37;31.50;49.10
19403;DHT22;9837;48.888;8.998;2023-06-22T06:59:02;31.70;48.60
19403;DHT22;9837;48.888;8.998;2023-06-22T07:01:28;32.00;48.60
19403;DHT22;9837;48.888;8.998;2023-06-22T07:03:59;31.70;48.60
19403;DHT22;9837;48.888;8.998;2023-06-22T07:06:24;31.50;49.30
19403;DHT22;9837;48.888;8.998;2023-06-22T07:08:55;31.60;49.20
19403;DHT22;9837;48.888;8.998;2023-06-22T07:11:20;32.20;47.90
19403;DHT22;9837;48.888;8.998;2023-06-22T07:13:46;32.10;47.50
19403;DHT22;9837;48.888;8.998;2023-06-22T07:18:39;31.90;47.50
19403;DHT22;9837;48.888;8.998;2023-06-22T07:21:05;31.00;48.40
19403;DHT22;9837;48.888;8.998;2023-06-22T07:23:32;30.20;50.20
19403;DHT22;9837;48.888;8.998;2023-06-22T07:25:58;30.00;51.60
19403;DHT22;9837;48.888;8.998;2023-06-22T07:28:27;29.90;51.00
19403;DHT22;9837;48.888;8.998;2023-06-22T07:30:52;30.00;51.40
19403;DHT22;9837;48.888;8.998;2023-06-22T07:33:18;29.70;50.50
19403;DHT22;9837;48.888;8.998;2023-06-22T07:35:43;29.40;51.60
19403;DHT22;9837;48.888;8.998;2023-06-22T07:38:09;29.30;51.90
19403;DHT22;9837;48.888;8.998;2023-06-22T07:40:35;29.00;52.60
19403;DHT22;9837;48.888;8.998;2023-06-22T07:43:01;28.80;53.10
19403;DHT22;9837;48.888;8.998;2023-06-22T07:45:27;28.80;54.00
19403;DHT22;9837;48.888;8.998;2023-06-22T07:47:52;29.10;53.40
19403;DHT22;9837;48.888;8.998;2023-06-22T07:50:18;29.50;52.90
19403;DHT22;9837;48.888;8.998;2023-06-22T07:52:43;29.50;52.40
19403;DHT22;9837;48.888;8.998;2023-06-22T07:55:09;29.90;52.60
19403;DHT22;9837;48.888;8.998;2023-06-22T07:57:34;30.00;50.90
19403;DHT22;9837;48.888;8.998;2023-06-22T08:00:02;29.80;50.90
19403;DHT22;9837;48.888;8.998;2023-06-22T08:02:29;30.00;51.50
19403;DHT22;9837;48.888;8.998;2023-06-22T08:04:55;30.00;51.20
19403;DHT22;9837;48.888;8.998;2023-06-22T08:09:47;30.50;50.70
19403;DHT22;9837;48.888;8.998;2023-06-22T08:12:14;30.80;50.00
19403;DHT22;9837;48.888;8.998;2023-06-22T08:14:41;30.50;50.20
19403;DHT22;9837;48.888;8.998;2023-06-22T08:17:07;30.60;50.30
19403;DHT22;9837;48.888;8.998;2023-06-22T08:21:58;31.10;50.10
19403;DHT22;9837;48.888;8.998;2023-06-22T08:26:52;31.40;48.60
19403;DHT22;9837;48.888;8.998;2023-06-22T08:29:17;31.40;48.60
19403;DHT22;9837;48.888;8.998;2023-06-22T08:31:43;31.40;48.10
19403;DHT22;9837;48.888;8.998;2023-06-22T08:34:08;31.30;48.30
19403;DHT22;9837;48.888;8.998;2023-06-22T08:36:34;30.80;49.40
19403;DHT22;9837;48.888;8.998;2023-06-22T08:39:03;30.80;49.60
19403;DHT22;9837;48.888;8.998;2023-06-22T08:41:29;30.70;49.30
19403;DHT22;9837;48.888;8.998;2023-06-22T08:43:55;30.60;49.60
19403;DHT22;9837;48.888;8.998;2023-06-22T08:46:21;30.60;49.70
19403;DHT22;9837;48.888;8.998;2023-06-22T08:48:49;30.80;49.60
19403;DHT22;9837;48.888;8.998;2023-06-22T08:51:15;30.60;49.70
19403;DHT22;9837;48.888;8.998;2023-06-22T08:53:41;30.60;50.70
19403;DHT22;9837;48.888;8.998;2023-06-22T08:56:06;30.70;50.20
19403;DHT22;9837;48.888;8.998;2023-06-22T09:00:58;31.20;49.90
19403;DHT22;9837;48.888;8.998;2023-06-22T09:03:26;31.40;49.50
19403;DHT22;9837;48.888;8.998;2023-06-22T09:05:52;31.40;49.40
19403;DHT22;9837;48.888;8.998;2023-06-22T09:08:17;31.50;49.50
19403;DHT22;9837;48.888;8.998;2023-06-22T09:10:43;31.90;49.10
19403;DHT22;9837;48.888;8.998;2023-06-22T09:13:08;32.30;47.80
19403;DHT22;9837;48.888;8.998;2023-06-22T09:15:34;32.60;47.00
19403;DHT22;9837;48.888;8.998;2023-06-22T09:18:00;32.80;46.40
19403;DHT22;9837;48.888;8.998;2023-06-22T09:20:25;32.10;47.40
19403;DHT22;9837;48.888;8.998;2023-06-22T09:22:51;31.80;48.20
19403;DHT22;9837;48.888;8.998;2023-06-22T09:25:16;31.30;48.60
19403;DHT22;9837;48.888;8.998;2023-06-22T09:27:42;30.90;50.10
19403;DHT22;9837;48.888;8.998;2023-06-22T09:30:08;30.70;51.00
19403;DHT22;9837;48.888;8.998;2023-06-22T09:32:34;30.60;51.00
19403;DHT22;9837;48.888;8.998;2023-06-22T09:35:03;30.30;51.70
19403;DHT22;9837;48.888;8.998;2023-06-22T09:37:30;30.20;52.30
19403;DHT22;9837;48.888;8.998;2023-06-22T09:39:56;30.50;51.60
19403;DHT22;9837;48.888;8.998;2023-06-22T09:42:22;30.70;51.40
19403;DHT22;9837;48.888;8.998;2023-06-22T09:44:47;30.80;51.10
19403;DHT22;9837;48.888;8.998;2023-06-22T09:47:13;31.20;50.50
19403;DHT22;9837;48.888;8.998;2023-06-22T09:49:38;31.60;50.20
19403;DHT22;9837;48.888;8.998;2023-06-22T09:52:04;31.90;49.20
19403;DHT22;9837;48.888;8.998;2023-06-22T09:54:30;32.10;49.00
19403;DHT22;9837;48.888;8.998;2023-06-22T09:56:55;32.20;49.60
19403;DHT22;9837;48.888;8.998;2023-06-22T09:59:21;32.60;47.30
19403;DHT22;9837;48.888;8.998;2023-06-22T10:01:46;32.60;47.90
19403;DHT22;9837;48.888;8.998;2023-06-22T10:04:12;33.00;46.50
19403;DHT22;9837;48.888;8.998;2023-06-22T10:06:37;33.30;46.10
19403;DHT22;9837;48.888;8.998;2023-06-22T10:09:06;33.30;46.20
19403;DHT22;9837;48.888;8.998;2023-06-22T10:14:00;33.10;46.00
19403;DHT22;9837;48.888;8.998;2023-06-22T10:16:30;33.20;46.30
19403;DHT22;9837;48.888;8.998;2023-06-22T10:18:56;33.40;46.80
19403;DHT22;9837;48.888;8.998;2023-06-22T10:21:22;33.40;46.10
19403;DHT22;9837;48.888;8.998;2023-06-22T10:23:47;33.50;45.50
19403;DHT22;9837;48.888;8.998;2023-06-22T10:28:38;33.50;45.70
19403;DHT22;9837;48.888;8.998;2023-06-22T10:31:04;33.10;46.00
19403;DHT22;9837;48.888;8.998;2023-06-22T10:33:30;33.20;46.30
19403;DHT22;9837;48.888;8.998;2023-06-22T10:35:55;33.00;45.70
19403;DHT22;9837;48.888;8.998;2023-06-22T10:38:21;32.80;46.50
19403;DHT22;9837;48.888;8.998;2023-06-22T10:40:46;32.70;47.30
19403;DHT22;9837;48.888;8.998;2023-06-22T10:43:12;32.80;47.60
19403;DHT22;9837;48.888;8.998;2023-06-22T10:45:37;32.90;47.10
19403;DHT22;9837;48.888;8.998;2023-06-22T10:48:03;33.30;46.50
19403;DHT22;9837;48.888;8.998;2023-06-22T10:50:29;33.50;46.30
19403;DHT22;9837;48.888;8.998;2023-06-22T10:52:54;33.50;45.70
19403;DHT22;9837;48.888;8.998;2023-06-22T10:55:20;33.40;45.70
19403;DHT22;9837;48.888;8.998;2023-06-22T10:57:45;33.40;46.00
19403;DHT22;9837;48.888;8.998;2023-06-22T11:00:13;33.60;46.10
19403;DHT22;9837;48.888;8.998;2023-06-22T11:02:39;33.90;44.80
19403;DHT22;9837;48.888;8.998;2023-06-22T11:05:04;34.00;44.40
19403;DHT22;9837;48.888;8.998;2023-06-22T11:07:30;34.00;44.70
19403;DHT22;9837;48.888;8.998;2023-06-22T11:09:56;33.90;44.50
19403;DHT22;9837;48.888;8.998;2023-06-22T11:12:22;34.00;44.40
19403;DHT22;9837;48.888;8.998;2023-06-22T11:14:47;34.40;44.10
19403;DHT22;9837;48.888;8.998;2023-06-22T11:17:15;34.40;43.70
19403;DHT22;9837;48.888;8.998;2023-06-22T11:19:40;34.20;43.10
19403;DHT22;9837;48.888;8.998;2023-06-22T11:22:06;34.30;43.40
19403;DHT22;9837;48.888;8.998;2023-06-22T11:26:57;34.50;42.90
19403;DHT22;9837;48.888;8.998;2023-06-22T11:31:49;34.70;42.30
19403;DHT22;9837;48.888;8.998;2023-06-22T11:34:14;34.70;42.20
19403;DHT22;9837;48.888;8.998;2023-06-22T11:36:41;34.60;42.40
19403;DHT22;9837;48.888;8.998;2023-06-22T11:39:08;34.50;43.20
19403;DHT22;9837;48.888;8.998;2023-06-22T11:41:34;34.40;43.40
19403;DHT22;9837;48.888;8.998;2023-06-22T11:44:00;34.40;43.50
19403;DHT22;9837;48.888;8.998;2023-06-22T11:46:26;34.30;43.60
19403;DHT22;9837;48.888;8.998;2023-06-22T11:48:51;34.10;43.40
19403;DHT22;9837;48.888;8.998;2023-06-22T11:51:17;34.10;44.20
19403;DHT22;9837;48.888;8.998;2023-06-22T11:53:42;34.10;43.50
19403;DHT22;9837;48.888;8.998;2023-06-22T11:56:08;33.80;43.60
19403;DHT22;9837;48.888;8.998;2023-06-22T11:58:33;33.60;44.20
19403;DHT22;9837;48.888;8.998;2023-06-22T12:00:59;33.40;44.20
19403;DHT22;9837;48.888;8.998;2023-06-22T12:05:50;33.20;44.70
19403;DHT22;9837;48.888;8.998;2023-06-22T12:08:19;33.20;45.10
19403;DHT22;9837;48.888;8.998;2023-06-22T12:13:10;33.40;45.50
19403;DHT22;9837;48.888;8.998;2023-06-22T12:15:36;33.50;44.90
19403;DHT22;9837;48.888;8.998;2023-06-22T12:18:01;33.60;45.10
19403;DHT22;9837;48.888;8.998;2023-06-22T12:20:28;33.90;45.00
19403;DHT22;9837;48.888;8.998;2023-06-22T12:25:22;34.10;43.90
19403;DHT22;9837;48.888;8.998;2023-06-22T12:27:47;34.10;44.20
19403;DHT22;9837;48.888;8.998;2023-06-22T12:30:13;34.20;43.90
19403;DHT22;9837;48.888;8.998;2023-06-22T12:35:05;34.20;43.00
19403;DHT22;9837;48.888;8.998;2023-06-22T12:37:32;34.20;43.10
19403;DHT22;9837;48.888;8.998;2023-06-22T12:39:59;34.00;44.20
19403;DHT22;9837;48.888;8.998;2023-06-22T12:42:24;33.90;44.40
19403;DHT22;9837;48.888;8.998;2023-06-22T12:44:51;33.90;44.10
19403;DHT22;9837;48.888;8.998;2023-06-22T12:47:17;34.20;43.80
19403;DHT22;9837;48.888;8.998;2023-06-22T12:52:09;34.70;43.80
19403;DHT22;9837;48.888;8.998;2023-06-22T12:57:01;35.00;43.20
19403;DHT22;9837;48.888;8.998;2023-06-22T13:04:18;35.00;42.90
19403;DHT22;9837;48.888;8.998;2023-06-22T13:06:45;34.90;43.10
19403;DHT22;9837;48.888;8.998;2023-06-22T13:09:14;34.60;43.80
19403;DHT22;9837;48.888;8.998;2023-06-22T13:14:05;34.30;44.70
19403;DHT22;9837;48.888;8.998;2023-06-22T13:18:57;33.80;46.20
19403;DHT22;9837;48.888;8.998;2023-06-22T13:23:48;33.80;46.20
19403;DHT22;9837;48.888;8.998;2023-06-22T13:28:40;33.70;47.20
19403;DHT22;9837;48.888;8.998;2023-06-22T13:31:05;33.70;46.80
19403;DHT22;9837;48.888;8.998;2023-06-22T13:33:31;33.70;46.50
19403;DHT22;9837;48.888;8.998;2023-06-22T13:35:56;34.00;46.00
19403;DHT22;9837;48.888;8.998;2023-06-22T13:38:22;34.40;46.00
19403;DHT22;9837;48.888;8.998;2023-06-22T13:40:48;34.80;45.40
19403;DHT22;9837;48.888;8.998;2023-06-22T13:43:14;34.90;45.00
19403;DHT22;9837;48.888;8.998;2023-06-22T13:45:41;35.00;45.00
19403;DHT22;9837;48.888;8.998;2023-06-22T13:48:07;35.30;44.60
19403;DHT22;9837;48.888;8.998;2023-06-22T13:50:32;35.40;44.50
19403;DHT22;9837;48.888;8.998;2023-06-22T13:52:58;35.70;43.60
19403;DHT22;9837;48.888;8.998;2023-06-22T13:57:49;35.70;43.30
19403;DHT22;9837;48.888;8.998;2023-06-22T14:00:16;35.70;43.00
19403;DHT22;9837;48.888;8.998;2023-06-22T14:02:42;35.70;44.00
19403;DHT22;9837;48.888;8.998;2023-06-22T14:05:08;35.70;43.20
19403;DHT22;9837;48.888;8.998;2023-06-22T14:07:34;35.30;44.20
19403;DHT22;9837;48.888;8.998;2023-06-22T14:10:00;35.50;44.90
19403;DHT22;9837;48.888;8.998;2023-06-22T14:14:52;35.40;45.10
19403;DHT22;9837;48.888;8.998;2023-06-22T14:17:17;35.40;45.20
19403;DHT22;9837;48.888;8.998;2023-06-22T14:19:49;35.30;44.80
19403;DHT22;9837;48.888;8.998;2023-06-22T14:22:14;35.30;45.10
19403;DHT22;9837;48.888;8.998;2023-06-22T14:24:40;35.20;43.40
19403;DHT22;9837;48.888;8.998;2023-06-22T14:27:05;35.00;43.20
19403;DHT22;9837;48.888;8.998;2023-06-22T14:29:34;35.10;41.80
19403;DHT22;9837;48.888;8.998;2023-06-22T14:34:25;35.60;40.90
19403;DHT22;9837;48.888;8.998;2023-06-22T14:39:17;35.70;33.90
19403;DHT22;9837;48.888;8.998;2023-06-22T14:41:42;35.80;33.60
19403;DHT22;9837;48.888;8.998;2023-06-22T14:44:08;36.00;32.40
19403;DHT22;9837;48.888;8.998;2023-06-22T14:46:33;36.10;32.50
19403;DHT22;9837;48.888;8.998;2023-06-22T14:48:59;36.20;31.50
19403;DHT22;9837;48.888;8.998;2023-06-22T14:51:24;36.10;32.00
19403;DHT22;9837;48.888;8.998;2023-06-22T14:53:50;36.10;31.50
19403;DHT22;9837;48.888;8.998;2023-06-22T14:56:15;36.30;31.50
19403;DHT22;9837;48.888;8.998;2023-06-22T14:58:41;36.30;30.90
19403;DHT22;9837;48.888;8.998;2023-06-22T15:01:11;36.50;30.50
19403;DHT22;9837;48.888;8.998;2023-06-22T15:06:03;36.70;30.40
19403;DHT22;9837;48.888;8.998;2023-06-22T15:08:29;36.70;30.10
19403;DHT22;9837;48.888;8.998;2023-06-22T15:10:57;36.60;30.10
19403;DHT22;9837;48.888;8.998;2023-06-22T15:13:23;36.40;30.80
19403;DHT22;9837;48.888;8.998;2023-06-22T15:15:49;36.00;30.50
19403;DHT22;9837;48.888;8.998;2023-06-22T15:18:15;35.90;30.70
19403;DHT22;9837;48.888;8.998;2023-06-22T15:20:41;36.10;31.10
19403;DHT22;9837;48.888;8.998;2023-06-22T15:23:10;36.30;30.50
19403;DHT22;9837;48.888;8.998;2023-06-22T15:25:35;36.50;30.30
19403;DHT22;9837;48.888;8.998;2023-06-22T15:28:01;36.60;30.80
19403;DHT22;9837;48.888;8.998;2023-06-22T15:30:28;36.60;30.70
19403;DHT22;9837;48.888;8.998;2023-06-22T15:32:54;36.50;30.30
19403;DHT22;9837;48.888;8.998;2023-06-22T15:35:20;36.20;30.30
19403;DHT22;9837;48.888;8.998;2023-06-22T15:40:11;36.00;31.00
19403;DHT22;9837;48.888;8.998;2023-06-22T15:45:04;36.00;32.30
19403;DHT22;9837;48.888;8.998;2023-06-22T15:47:30;36.10;31.80
19403;DHT22;9837;48.888;8.998;2023-06-22T15:49:55;36.10;31.60
19403;DHT22;9837;48.888;8.998;2023-06-22T15:52:21;36.00;32.10
19403;DHT22;9837;48.888;8.998;2023-06-22T15:54:46;36.10;31.50
19403;DHT22;9837;48.888;8.998;2023-06-22T15:57:12;36.30;31.70
19403;DHT22;9837;48.888;8.998;2023-06-22T15:59:38;36.30;31.40
19403;DHT22;9837;48.888;8.998;2023-06-22T16:04:30;36.70;32.00
19403;DHT22;9837;48.888;8.998;2023-06-22T16:09:21;36.80;31.70
19403;DHT22;9837;48.888;8.998;2023-06-22T16:11:47;36.60;31.90
19403;DHT22;9837;48.888;8.998;2023-06-22T16:14:12;36.40;31.60
19403;DHT22;9837;48.888;8.998;2023-06-22T16:16:38;36.00;32.40
19403;DHT22;9837;48.888;8.998;2023-06-22T16:19:03;35.90;32.70
19403;DHT22;9837;48.888;8.998;2023-06-22T16:21:29;35.80;32.50
19403;DHT22;9837;48.888;8.998;2023-06-22T16:23:54;35.50;32.40
19403;DHT22;9837;48.888;8.998;2023-06-22T16:26:20;35.40;32.90
19403;DHT22;9837;48.888;8.998;2023-06-22T16:28:45;35.40;31.80
19403;DHT22;9837;48.888;8.998;2023-06-22T16:31:11;35.20;32.10
19403;DHT22;9837;48.888;8.998;2023-06-22T16:33:36;35.10;32.30
19403;DHT22;9837;48.888;8.998;2023-06-22T16:38:28;34.80;32.60
19403;DHT22;9837;48.888;8.998;2023-06-22T16:40:55;34.80;33.20
19403;DHT22;9837;48.888;8.998;2023-06-22T16:43:21;35.10;33.00
19403;DHT22;9837;48.888;8.998;2023-06-22T16:45:47;35.10;31.90
19403;DHT22;9837;48.888;8.998;2023-06-22T16:48:12;35.10;31.90
19403;DHT22;9837;48.888;8.998;2023-06-22T16:50:38;35.10;31.90
19403;DHT22;9837;48.888;8.998;2023-06-22T16:53:03;34.90;32.10
19403;DHT22;9837;48.888;8.998;2023-06-22T16:55:29;34.80;32.40
19403;DHT22;9837;48.888;8.998;2023-06-22T16:57:56;34.90;32.80
19403;DHT22;9837;48.888;8.998;2023-06-22T17:00:22;34.90;32.70
19403;DHT22;9837;48.888;8.998;2023-06-22T17:02:49;34.60;33.10
19403;DHT22;9837;48.888;8.998;2023-06-22T17:05:15;34.50;33.80
19403;DHT22;9837;48.888;8.998;2023-06-22T17:07:48;34.40;33.80
19403;DHT22;9837;48.888;8.998;2023-06-22T17:10:17;34.50;34.40
19403;DHT22;9837;48.888;8.998;2023-06-22T17:12:43;34.30;33.70
19403;DHT22;9837;48.888;8.998;2023-06-22T17:15:09;34.10;33.90
19403;DHT22;9837;48.888;8.998;2023-06-22T17:17:39;34.10;34.50
19403;DHT22;9837;48.888;8.998;2023-06-22T17:20:05;33.90;34.50